Aérodrome :
LOGIN :

S'inscrire | Disclaimer

   EN    FR    IT 

 










Légende :    VFR   VFR Marginal   IFR   IFR Intensif   IFR Très Intensif
Visi : 
Plafond : 
>= 8 km
>= 3000ft
5 à 8 km
1000 à 3000 ft
1500m à 5 km
500 à 1000 ft
800 à 1500m
200 à 500 ft
< 800m
< 200 ft
Symboles :   Orages  Brouillard  Fortes neiges  Fortes précipitations  Vent > 20 kt
SIGMETs :   Divers  Orages  Givrage  Turbulence  Onde Orograph.  Cendres Volcan.






- Altitude de l'aérodrome : 83 ft
- Code IATA : LHR


EGLL - London Heathrow

DERNIER METAR :
  • 041620Z AUTO 21011KT 9999 NCD 05/01 Q0979 NOSIG

METARs EXPIRÉS :
  • 041550Z AUTO 21009KT 9999 NCD 05/01 Q0979
  • 041520Z AUTO 23011KT 9999 NCD 05/01 Q0978 NOSIG
  • 041450Z AUTO 23011KT 9999 NCD 05/01 Q0978 NOSIG
  • 041420Z AUTO 23012KT 9999 NCD 05/01 Q0978 NOSIG
  • 041350Z AUTO 24011KT 9999 NCD 06/01 Q0978 NOSIG

TAF TAF EGLL
Valide du 04 à 12h jusqu'au 05 à 18h UTC


041105Z 0412/0518 24010KT 9999 BKN030
TEMPO 0412/0414 5000 SHRA BKN010
BECMG 0500/0503 12008KT
TEMPO 0515/0518 5000 SHRA BKN007



MET'MAP, la Météo Aéronautique d'un coup d'oeil ! - Copyright ORBIFLY Décembre 2007 - Disclaimer

ORBIFLY MET'MAP TEAM :

Programmation & Développement : Alexandra Zaïnal
Sur une idée originale de : Baudouin d'Aumeries
Assistance à la programmation : Marc-Olivier Méhu
Soutien technique & logistique : Manuel Goepfert

Contact : metmap@orbifly.com




SOURCES & CREDITS :

   NOAA